Aviation Digital Data Service (ADDS)

Output produced by METARs form (2157 UTC 21 May 2022)
found at http://www.aviationweather.gov/metar/data/
 
MBGT 211540Z 2118/2218 09015KT 9999 SCT018 BKN040
       
MBPV 211540Z 2118/2218 09015KT 9999 SCT018 BKN040